sensor_id;sensor_type;location;lat;lon;timestamp;P1;durP1;ratioP1;P2;durP2;ratioP2
70169;SDS011;57543;45.442;9.212;2022-11-20T00:01:08;40.77;;;19.10;;
70169;SDS011;57543;45.442;9.212;2022-11-20T00:04:22;37.97;;;18.67;;
70169;SDS011;57543;45.442;9.212;2022-11-20T00:07:26;34.33;;;18.35;;
70169;SDS011;57543;45.442;9.212;2022-11-20T00:10:30;32.55;;;17.52;;
70169;SDS011;57543;45.442;9.212;2022-11-20T00:13:34;34.08;;;17.30;;
70169;SDS011;57543;45.442;9.212;2022-11-20T00:16:38;31.20;;;16.93;;
70169;SDS011;57543;45.442;9.212;2022-11-20T00:19:41;29.27;;;16.67;;
70169;SDS011;57543;45.442;9.212;2022-11-20T00:22:45;30.75;;;17.02;;
70169;SDS011;57543;45.442;9.212;2022-11-20T00:25:50;26.60;;;16.38;;
70169;SDS011;57543;45.442;9.212;2022-11-20T00:29:02;30.00;;;16.77;;
70169;SDS011;57543;45.442;9.212;2022-11-20T00:32:06;28.63;;;16.93;;
70169;SDS011;57543;45.442;9.212;2022-11-20T00:35:09;25.80;;;15.70;;
70169;SDS011;57543;45.442;9.212;2022-11-20T00:38:13;23.67;;;14.75;;
70169;SDS011;57543;45.442;9.212;2022-11-20T00:41:16;25.15;;;15.70;;
70169;SDS011;57543;45.442;9.212;2022-11-20T00:44:20;26.60;;;15.55;;
70169;SDS011;57543;45.442;9.212;2022-11-20T00:47:24;26.33;;;14.87;;
70169;SDS011;57543;45.442;9.212;2022-11-20T00:50:28;23.98;;;14.48;;
70169;SDS011;57543;45.442;9.212;2022-11-20T00:53:31;26.23;;;15.00;;
70169;SDS011;57543;45.442;9.212;2022-11-20T00:56:35;24.90;;;15.07;;
70169;SDS011;57543;45.442;9.212;2022-11-20T00:59:39;25.48;;;14.70;;
70169;SDS011;57543;45.442;9.212;2022-11-20T01:02:43;23.63;;;13.97;;
70169;SDS011;57543;45.442;9.212;2022-11-20T01:05:46;24.08;;;14.57;;
70169;SDS011;57543;45.442;9.212;2022-11-20T01:08:50;24.70;;;14.80;;
70169;SDS011;57543;45.442;9.212;2022-11-20T01:11:57;25.27;;;14.02;;
70169;SDS011;57543;45.442;9.212;2022-11-20T01:15:02;24.05;;;15.18;;
70169;SDS011;57543;45.442;9.212;2022-11-20T01:18:06;24.63;;;14.17;;
70169;SDS011;57543;45.442;9.212;2022-11-20T01:21:14;26.02;;;14.75;;
70169;SDS011;57543;45.442;9.212;2022-11-20T01:24:21;24.60;;;14.40;;
70169;SDS011;57543;45.442;9.212;2022-11-20T01:27:25;23.60;;;14.57;;
70169;SDS011;57543;45.442;9.212;2022-11-20T01:30:29;29.42;;;15.35;;
70169;SDS011;57543;45.442;9.212;2022-11-20T01:33:33;28.57;;;15.53;;
70169;SDS011;57543;45.442;9.212;2022-11-20T01:36:37;26.13;;;15.02;;
70169;SDS011;57543;45.442;9.212;2022-11-20T01:39:42;25.52;;;14.60;;
70169;SDS011;57543;45.442;9.212;2022-11-20T01:42:52;26.70;;;14.93;;
70169;SDS011;57543;45.442;9.212;2022-11-20T01:46:21;25.08;;;14.35;;
70169;SDS011;57543;45.442;9.212;2022-11-20T01:49:33;25.20;;;13.50;;
70169;SDS011;57543;45.442;9.212;2022-11-20T01:52:55;24.00;;;14.20;;
70169;SDS011;57543;45.442;9.212;2022-11-20T01:56:01;25.38;;;14.43;;
70169;SDS011;57543;45.442;9.212;2022-11-20T01:59:08;23.88;;;13.95;;
70169;SDS011;57543;45.442;9.212;2022-11-20T02:02:16;25.23;;;14.43;;
70169;SDS011;57543;45.442;9.212;2022-11-20T02:05:31;25.27;;;14.20;;
70169;SDS011;57543;45.442;9.212;2022-11-20T02:08:36;25.58;;;14.40;;
70169;SDS011;57543;45.442;9.212;2022-11-20T02:11:41;25.88;;;14.60;;
70169;SDS011;57543;45.442;9.212;2022-11-20T02:14:45;28.05;;;14.63;;
70169;SDS011;57543;45.442;9.212;2022-11-20T02:17:48;29.00;;;15.20;;
70169;SDS011;57543;45.442;9.212;2022-11-20T02:20:53;26.27;;;14.33;;
70169;SDS011;57543;45.442;9.212;2022-11-20T02:24:06;26.75;;;14.50;;
70169;SDS011;57543;45.442;9.212;2022-11-20T02:27:13;27.25;;;15.10;;
70169;SDS011;57543;45.442;9.212;2022-11-20T02:30:18;27.15;;;15.35;;
70169;SDS011;57543;45.442;9.212;2022-11-20T02:33:22;29.35;;;15.57;;
70169;SDS011;57543;45.442;9.212;2022-11-20T02:36:26;26.03;;;14.57;;
70169;SDS011;57543;45.442;9.212;2022-11-20T02:39:30;29.92;;;15.90;;
70169;SDS011;57543;45.442;9.212;2022-11-20T02:42:35;28.45;;;15.35;;
70169;SDS011;57543;45.442;9.212;2022-11-20T02:45:39;27.83;;;15.13;;
70169;SDS011;57543;45.442;9.212;2022-11-20T02:48:43;30.38;;;16.33;;
70169;SDS011;57543;45.442;9.212;2022-11-20T02:51:46;28.10;;;15.37;;
70169;SDS011;57543;45.442;9.212;2022-11-20T02:54:50;31.63;;;16.17;;
70169;SDS011;57543;45.442;9.212;2022-11-20T02:57:54;29.50;;;15.77;;
70169;SDS011;57543;45.442;9.212;2022-11-20T03:00:58;32.47;;;15.82;;
70169;SDS011;57543;45.442;9.212;2022-11-20T03:04:01;31.25;;;15.95;;
70169;SDS011;57543;45.442;9.212;2022-11-20T03:07:05;27.53;;;15.77;;
70169;SDS011;57543;45.442;9.212;2022-11-20T03:10:09;26.55;;;14.82;;
70169;SDS011;57543;45.442;9.212;2022-11-20T03:13:13;21.95;;;13.23;;
70169;SDS011;57543;45.442;9.212;2022-11-20T03:16:17;20.02;;;12.13;;
70169;SDS011;57543;45.442;9.212;2022-11-20T03:19:22;20.02;;;12.20;;
70169;SDS011;57543;45.442;9.212;2022-11-20T03:22:28;18.53;;;11.40;;
70169;SDS011;57543;45.442;9.212;2022-11-20T03:25:33;19.50;;;12.13;;
70169;SDS011;57543;45.442;9.212;2022-11-20T03:28:37;20.83;;;12.25;;
70169;SDS011;57543;45.442;9.212;2022-11-20T03:31:40;21.80;;;11.77;;
70169;SDS011;57543;45.442;9.212;2022-11-20T03:34:44;21.00;;;11.45;;
70169;SDS011;57543;45.442;9.212;2022-11-20T03:37:48;16.93;;;11.57;;
70169;SDS011;57543;45.442;9.212;2022-11-20T03:40:57;20.13;;;11.98;;
70169;SDS011;57543;45.442;9.212;2022-11-20T03:44:03;18.80;;;11.68;;
70169;SDS011;57543;45.442;9.212;2022-11-20T03:47:09;22.13;;;11.95;;
70169;SDS011;57543;45.442;9.212;2022-11-20T03:50:13;19.48;;;12.38;;
70169;SDS011;57543;45.442;9.212;2022-11-20T03:53:17;22.03;;;12.17;;
70169;SDS011;57543;45.442;9.212;2022-11-20T03:56:24;21.58;;;12.75;;
70169;SDS011;57543;45.442;9.212;2022-11-20T03:59:29;20.13;;;11.68;;
70169;SDS011;57543;45.442;9.212;2022-11-20T04:02:33;21.35;;;11.98;;
70169;SDS011;57543;45.442;9.212;2022-11-20T04:05:37;21.65;;;12.15;;
70169;SDS011;57543;45.442;9.212;2022-11-20T04:08:41;22.10;;;11.93;;
70169;SDS011;57543;45.442;9.212;2022-11-20T04:11:45;18.55;;;11.82;;
70169;SDS011;57543;45.442;9.212;2022-11-20T04:14:49;22.38;;;12.75;;
70169;SDS011;57543;45.442;9.212;2022-11-20T04:17:53;24.85;;;13.65;;
70169;SDS011;57543;45.442;9.212;2022-11-20T04:20:58;22.83;;;12.90;;
70169;SDS011;57543;45.442;9.212;2022-11-20T04:24:02;19.87;;;12.47;;
70169;SDS011;57543;45.442;9.212;2022-11-20T04:27:05;24.70;;;13.85;;
70169;SDS011;57543;45.442;9.212;2022-11-20T04:30:10;21.10;;;13.02;;
70169;SDS011;57543;45.442;9.212;2022-11-20T04:33:14;21.83;;;12.85;;
70169;SDS011;57543;45.442;9.212;2022-11-20T04:36:19;23.75;;;13.10;;
70169;SDS011;57543;45.442;9.212;2022-11-20T04:39:24;20.37;;;12.27;;
70169;SDS011;57543;45.442;9.212;2022-11-20T04:42:27;21.25;;;11.80;;
70169;SDS011;57543;45.442;9.212;2022-11-20T04:45:33;21.08;;;12.13;;
70169;SDS011;57543;45.442;9.212;2022-11-20T04:48:37;22.48;;;11.68;;
70169;SDS011;57543;45.442;9.212;2022-11-20T04:51:41;23.23;;;12.15;;
70169;SDS011;57543;45.442;9.212;2022-11-20T04:54:44;22.93;;;12.70;;
70169;SDS011;57543;45.442;9.212;2022-11-20T04:57:51;19.70;;;11.70;;
70169;SDS011;57543;45.442;9.212;2022-11-20T05:01:05;19.65;;;12.00;;
70169;SDS011;57543;45.442;9.212;2022-11-20T05:04:10;18.45;;;11.35;;
70169;SDS011;57543;45.442;9.212;2022-11-20T05:07:14;18.90;;;11.57;;
70169;SDS011;57543;45.442;9.212;2022-11-20T05:10:18;17.80;;;11.03;;
70169;SDS011;57543;45.442;9.212;2022-11-20T05:13:21;18.70;;;11.27;;
70169;SDS011;57543;45.442;9.212;2022-11-20T05:16:25;18.20;;;11.63;;
70169;SDS011;57543;45.442;9.212;2022-11-20T05:19:29;18.45;;;10.93;;
70169;SDS011;57543;45.442;9.212;2022-11-20T05:22:33;17.35;;;11.25;;
70169;SDS011;57543;45.442;9.212;2022-11-20T05:25:37;17.87;;;11.20;;
70169;SDS011;57543;45.442;9.212;2022-11-20T05:28:41;17.95;;;11.18;;
70169;SDS011;57543;45.442;9.212;2022-11-20T05:31:45;19.10;;;11.27;;
70169;SDS011;57543;45.442;9.212;2022-11-20T05:34:48;18.10;;;11.50;;
70169;SDS011;57543;45.442;9.212;2022-11-20T05:37:52;18.60;;;11.55;;
70169;SDS011;57543;45.442;9.212;2022-11-20T05:41:03;20.00;;;11.57;;
70169;SDS011;57543;45.442;9.212;2022-11-20T05:44:12;18.08;;;11.27;;
70169;SDS011;57543;45.442;9.212;2022-11-20T05:47:16;19.45;;;12.07;;
70169;SDS011;57543;45.442;9.212;2022-11-20T05:50:20;19.33;;;12.10;;
70169;SDS011;57543;45.442;9.212;2022-11-20T05:53:24;18.48;;;11.38;;
70169;SDS011;57543;45.442;9.212;2022-11-20T05:56:28;20.33;;;12.03;;
70169;SDS011;57543;45.442;9.212;2022-11-20T05:59:32;19.70;;;12.15;;
70169;SDS011;57543;45.442;9.212;2022-11-20T06:02:36;21.02;;;11.90;;
70169;SDS011;57543;45.442;9.212;2022-11-20T06:05:40;19.52;;;11.52;;
70169;SDS011;57543;45.442;9.212;2022-11-20T06:08:44;20.52;;;11.73;;
70169;SDS011;57543;45.442;9.212;2022-11-20T06:11:48;18.80;;;11.20;;
70169;SDS011;57543;45.442;9.212;2022-11-20T06:14:52;18.83;;;11.52;;
70169;SDS011;57543;45.442;9.212;2022-11-20T06:17:56;18.73;;;11.57;;
70169;SDS011;57543;45.442;9.212;2022-11-20T06:21:03;19.02;;;11.50;;
70169;SDS011;57543;45.442;9.212;2022-11-20T06:24:18;21.17;;;11.82;;
70169;SDS011;57543;45.442;9.212;2022-11-20T06:27:22;21.83;;;12.10;;
70169;SDS011;57543;45.442;9.212;2022-11-20T06:30:26;17.95;;;11.80;;
70169;SDS011;57543;45.442;9.212;2022-11-20T06:33:30;22.02;;;13.20;;
70169;SDS011;57543;45.442;9.212;2022-11-20T06:36:33;23.00;;;12.88;;
70169;SDS011;57543;45.442;9.212;2022-11-20T06:39:37;19.73;;;11.82;;
70169;SDS011;57543;45.442;9.212;2022-11-20T06:42:41;23.13;;;12.97;;
70169;SDS011;57543;45.442;9.212;2022-11-20T06:45:44;20.63;;;12.60;;
70169;SDS011;57543;45.442;9.212;2022-11-20T06:48:48;21.15;;;12.25;;
70169;SDS011;57543;45.442;9.212;2022-11-20T06:51:53;21.98;;;12.05;;
70169;SDS011;57543;45.442;9.212;2022-11-20T06:54:57;20.15;;;11.82;;
70169;SDS011;57543;45.442;9.212;2022-11-20T06:58:00;21.70;;;12.43;;
70169;SDS011;57543;45.442;9.212;2022-11-20T07:01:05;20.40;;;12.55;;
70169;SDS011;57543;45.442;9.212;2022-11-20T07:04:10;20.58;;;12.35;;
70169;SDS011;57543;45.442;9.212;2022-11-20T07:07:13;20.65;;;12.32;;
70169;SDS011;57543;45.442;9.212;2022-11-20T07:10:17;19.50;;;12.00;;
70169;SDS011;57543;45.442;9.212;2022-11-20T07:13:21;20.10;;;11.70;;
70169;SDS011;57543;45.442;9.212;2022-11-20T07:16:24;21.77;;;13.25;;
70169;SDS011;57543;45.442;9.212;2022-11-20T07:19:28;20.67;;;12.68;;
70169;SDS011;57543;45.442;9.212;2022-11-20T07:22:31;19.65;;;11.48;;
70169;SDS011;57543;45.442;9.212;2022-11-20T07:25:35;22.63;;;11.93;;
70169;SDS011;57543;45.442;9.212;2022-11-20T07:28:38;21.07;;;11.70;;
70169;SDS011;57543;45.442;9.212;2022-11-20T07:31:42;20.77;;;12.27;;
70169;SDS011;57543;45.442;9.212;2022-11-20T07:34:46;20.13;;;11.43;;
70169;SDS011;57543;45.442;9.212;2022-11-20T07:37:49;19.90;;;11.40;;
70169;SDS011;57543;45.442;9.212;2022-11-20T07:40:54;19.10;;;10.93;;
70169;SDS011;57543;45.442;9.212;2022-11-20T07:43:59;21.33;;;11.60;;
70169;SDS011;57543;45.442;9.212;2022-11-20T07:47:02;17.63;;;10.43;;
70169;SDS011;57543;45.442;9.212;2022-11-20T07:50:06;16.55;;;9.98;;
70169;SDS011;57543;45.442;9.212;2022-11-20T07:53:10;17.75;;;10.30;;
70169;SDS011;57543;45.442;9.212;2022-11-20T07:56:15;19.95;;;11.25;;
70169;SDS011;57543;45.442;9.212;2022-11-20T07:59:20;19.73;;;10.60;;
70169;SDS011;57543;45.442;9.212;2022-11-20T08:02:23;16.95;;;10.27;;
70169;SDS011;57543;45.442;9.212;2022-11-20T08:05:28;16.50;;;10.80;;
70169;SDS011;57543;45.442;9.212;2022-11-20T08:08:32;15.93;;;10.65;;
70169;SDS011;57543;45.442;9.212;2022-11-20T08:11:35;16.08;;;10.60;;
70169;SDS011;57543;45.442;9.212;2022-11-20T08:14:58;17.87;;;11.27;;
70169;SDS011;57543;45.442;9.212;2022-11-20T08:18:02;17.38;;;11.45;;
70169;SDS011;57543;45.442;9.212;2022-11-20T08:21:14;18.52;;;11.88;;
70169;SDS011;57543;45.442;9.212;2022-11-20T08:24:18;16.67;;;10.93;;
70169;SDS011;57543;45.442;9.212;2022-11-20T08:27:21;17.48;;;11.65;;
70169;SDS011;57543;45.442;9.212;2022-11-20T08:30:25;16.53;;;10.77;;
70169;SDS011;57543;45.442;9.212;2022-11-20T08:33:30;18.55;;;11.13;;
70169;SDS011;57543;45.442;9.212;2022-11-20T08:36:35;17.38;;;11.77;;
70169;SDS011;57543;45.442;9.212;2022-11-20T08:39:39;17.67;;;11.70;;
70169;SDS011;57543;45.442;9.212;2022-11-20T08:42:49;17.80;;;11.70;;
70169;SDS011;57543;45.442;9.212;2022-11-20T08:45:55;16.37;;;11.03;;
70169;SDS011;57543;45.442;9.212;2022-11-20T08:49:00;14.85;;;9.98;;
70169;SDS011;57543;45.442;9.212;2022-11-20T08:52:04;19.17;;;11.40;;
70169;SDS011;57543;45.442;9.212;2022-11-20T08:55:07;15.43;;;10.88;;
70169;SDS011;57543;45.442;9.212;2022-11-20T08:58:12;18.00;;;11.77;;
70169;SDS011;57543;45.442;9.212;2022-11-20T09:01:16;16.33;;;10.60;;
70169;SDS011;57543;45.442;9.212;2022-11-20T09:04:20;16.73;;;10.88;;
70169;SDS011;57543;45.442;9.212;2022-11-20T09:07:24;15.82;;;11.23;;
70169;SDS011;57543;45.442;9.212;2022-11-20T09:10:27;17.50;;;11.30;;
70169;SDS011;57543;45.442;9.212;2022-11-20T09:13:31;17.83;;;11.18;;
70169;SDS011;57543;45.442;9.212;2022-11-20T09:16:36;16.37;;;11.13;;
70169;SDS011;57543;45.442;9.212;2022-11-20T09:19:40;18.33;;;11.75;;
70169;SDS011;57543;45.442;9.212;2022-11-20T09:22:44;16.20;;;10.82;;
70169;SDS011;57543;45.442;9.212;2022-11-20T09:25:47;15.10;;;9.15;;
70169;SDS011;57543;45.442;9.212;2022-11-20T09:28:51;18.15;;;8.65;;
70169;SDS011;57543;45.442;9.212;2022-11-20T09:31:55;13.57;;;8.03;;
70169;SDS011;57543;45.442;9.212;2022-11-20T09:34:59;13.10;;;7.97;;
70169;SDS011;57543;45.442;9.212;2022-11-20T09:38:06;14.90;;;8.38;;
70169;SDS011;57543;45.442;9.212;2022-11-20T09:41:15;17.88;;;10.40;;
70169;SDS011;57543;45.442;9.212;2022-11-20T09:44:42;14.30;;;9.73;;
70169;SDS011;57543;45.442;9.212;2022-11-20T09:47:53;15.23;;;9.40;;
70169;SDS011;57543;45.442;9.212;2022-11-20T09:51:26;14.75;;;9.25;;
70169;SDS011;57543;45.442;9.212;2022-11-20T09:54:33;12.55;;;8.00;;
70169;SDS011;57543;45.442;9.212;2022-11-20T09:57:41;12.48;;;7.68;;
70169;SDS011;57543;45.442;9.212;2022-11-20T10:00:47;13.82;;;8.40;;
70169;SDS011;57543;45.442;9.212;2022-11-20T10:04:12;11.40;;;7.33;;
70169;SDS011;57543;45.442;9.212;2022-11-20T10:07:23;12.32;;;8.23;;
70169;SDS011;57543;45.442;9.212;2022-11-20T10:10:34;12.50;;;7.72;;
70169;SDS011;57543;45.442;9.212;2022-11-20T10:13:47;13.15;;;7.25;;
70169;SDS011;57543;45.442;9.212;2022-11-20T10:20:23;11.90;;;7.63;;
70169;SDS011;57543;45.442;9.212;2022-11-20T10:30:43;11.23;;;6.75;;
70169;SDS011;57543;45.442;9.212;2022-11-20T10:33:49;10.70;;;6.55;;
70169;SDS011;57543;45.442;9.212;2022-11-20T10:37:01;9.83;;;5.83;;
70169;SDS011;57543;45.442;9.212;2022-11-20T10:43:40;9.40;;;5.60;;
70169;SDS011;57543;45.442;9.212;2022-11-20T10:46:45;11.23;;;7.03;;
70169;SDS011;57543;45.442;9.212;2022-11-20T10:49:51;10.82;;;6.53;;
70169;SDS011;57543;45.442;9.212;2022-11-20T10:56:20;12.00;;;7.20;;
70169;SDS011;57543;45.442;9.212;2022-11-20T11:03:07;11.02;;;6.75;;
70169;SDS011;57543;45.442;9.212;2022-11-20T11:06:29;12.60;;;7.30;;
70169;SDS011;57543;45.442;9.212;2022-11-20T11:09:40;14.50;;;7.60;;
70169;SDS011;57543;45.442;9.212;2022-11-20T11:12:46;10.85;;;6.85;;
70169;SDS011;57543;45.442;9.212;2022-11-20T11:15:54;11.10;;;7.07;;
70169;SDS011;57543;45.442;9.212;2022-11-20T11:19:12;12.50;;;7.40;;
70169;SDS011;57543;45.442;9.212;2022-11-20T11:22:17;10.75;;;7.32;;
70169;SDS011;57543;45.442;9.212;2022-11-20T11:25:31;12.70;;;7.87;;
70169;SDS011;57543;45.442;9.212;2022-11-20T11:28:39;13.30;;;7.95;;
70169;SDS011;57543;45.442;9.212;2022-11-20T11:31:42;13.15;;;7.90;;
70169;SDS011;57543;45.442;9.212;2022-11-20T11:38:32;10.93;;;7.13;;
70169;SDS011;57543;45.442;9.212;2022-11-20T11:41:38;12.63;;;7.20;;
70169;SDS011;57543;45.442;9.212;2022-11-20T11:44:46;12.55;;;7.75;;
70169;SDS011;57543;45.442;9.212;2022-11-20T11:48:09;15.40;;;8.48;;
70169;SDS011;57543;45.442;9.212;2022-11-20T11:51:12;12.25;;;7.43;;
70169;SDS011;57543;45.442;9.212;2022-11-20T12:04:43;10.93;;;7.10;;
70169;SDS011;57543;45.442;9.212;2022-11-20T12:11:49;13.13;;;7.93;;
70169;SDS011;57543;45.442;9.212;2022-11-20T12:14:59;12.00;;;8.00;;
70169;SDS011;57543;45.442;9.212;2022-11-20T12:18:06;11.52;;;7.18;;
70169;SDS011;57543;45.442;9.212;2022-11-20T12:21:25;12.63;;;7.22;;
70169;SDS011;57543;45.442;9.212;2022-11-20T12:24:42;11.88;;;7.20;;
70169;SDS011;57543;45.442;9.212;2022-11-20T12:31:16;13.43;;;7.60;;
70169;SDS011;57543;45.442;9.212;2022-11-20T12:34:47;11.40;;;6.95;;
70169;SDS011;57543;45.442;9.212;2022-11-20T12:41:45;12.93;;;7.35;;
70169;SDS011;57543;45.442;9.212;2022-11-20T12:55:24;14.40;;;6.97;;
70169;SDS011;57543;45.442;9.212;2022-11-20T13:02:18;12.05;;;6.63;;
70169;SDS011;57543;45.442;9.212;2022-11-20T13:08:55;11.85;;;6.53;;
70169;SDS011;57543;45.442;9.212;2022-11-20T13:12:10;11.32;;;6.03;;
70169;SDS011;57543;45.442;9.212;2022-11-20T13:15:39;10.60;;;5.88;;
70169;SDS011;57543;45.442;9.212;2022-11-20T13:18:55;10.60;;;6.10;;
70169;SDS011;57543;45.442;9.212;2022-11-20T13:21:58;9.63;;;5.93;;
70169;SDS011;57543;45.442;9.212;2022-11-20T13:25:02;9.15;;;5.50;;
70169;SDS011;57543;45.442;9.212;2022-11-20T13:31:25;9.23;;;5.25;;
70169;SDS011;57543;45.442;9.212;2022-11-20T13:34:33;9.38;;;5.63;;
70169;SDS011;57543;45.442;9.212;2022-11-20T13:37:38;7.97;;;4.87;;
70169;SDS011;57543;45.442;9.212;2022-11-20T13:44:05;9.10;;;5.70;;
70169;SDS011;57543;45.442;9.212;2022-11-20T13:47:21;9.05;;;5.60;;
70169;SDS011;57543;45.442;9.212;2022-11-20T13:50:51;9.80;;;6.05;;
70169;SDS011;57543;45.442;9.212;2022-11-20T14:01:08;9.68;;;5.70;;
70169;SDS011;57543;45.442;9.212;2022-11-20T14:04:15;8.30;;;4.90;;
70169;SDS011;57543;45.442;9.212;2022-11-20T14:07:24;10.13;;;4.90;;
70169;SDS011;57543;45.442;9.212;2022-11-20T14:10:34;7.77;;;4.30;;
70169;SDS011;57543;45.442;9.212;2022-11-20T14:13:38;8.50;;;4.30;;
70169;SDS011;57543;45.442;9.212;2022-11-20T14:16:42;6.78;;;3.60;;
70169;SDS011;57543;45.442;9.212;2022-11-20T14:19:48;6.43;;;3.58;;
70169;SDS011;57543;45.442;9.212;2022-11-20T14:22:54;8.32;;;3.88;;
70169;SDS011;57543;45.442;9.212;2022-11-20T14:25:58;6.20;;;3.40;;
70169;SDS011;57543;45.442;9.212;2022-11-20T14:29:02;5.38;;;2.60;;
70169;SDS011;57543;45.442;9.212;2022-11-20T14:32:06;4.90;;;2.88;;
70169;SDS011;57543;45.442;9.212;2022-11-20T14:35:13;4.50;;;2.50;;
70169;SDS011;57543;45.442;9.212;2022-11-20T14:38:26;4.65;;;2.40;;
70169;SDS011;57543;45.442;9.212;2022-11-20T14:41:31;4.77;;;2.40;;
70169;SDS011;57543;45.442;9.212;2022-11-20T14:44:36;5.55;;;2.40;;
70169;SDS011;57543;45.442;9.212;2022-11-20T14:47:39;6.70;;;2.95;;
70169;SDS011;57543;45.442;9.212;2022-11-20T14:50:44;6.38;;;3.15;;
70169;SDS011;57543;45.442;9.212;2022-11-20T14:53:48;7.55;;;3.50;;
70169;SDS011;57543;45.442;9.212;2022-11-20T14:56:59;7.70;;;3.30;;
70169;SDS011;57543;45.442;9.212;2022-11-20T15:03:15;6.78;;;3.03;;
70169;SDS011;57543;45.442;9.212;2022-11-20T15:06:24;6.60;;;3.40;;
70169;SDS011;57543;45.442;9.212;2022-11-20T15:09:29;7.03;;;3.13;;
70169;SDS011;57543;45.442;9.212;2022-11-20T15:12:37;6.00;;;3.33;;
70169;SDS011;57543;45.442;9.212;2022-11-20T15:15:52;6.80;;;3.70;;
70169;SDS011;57543;45.442;9.212;2022-11-20T15:19:01;10.40;;;3.75;;
70169;SDS011;57543;45.442;9.212;2022-11-20T15:22:11;7.30;;;3.67;;
70169;SDS011;57543;45.442;9.212;2022-11-20T15:25:22;7.55;;;3.50;;
70169;SDS011;57543;45.442;9.212;2022-11-20T15:28:29;8.57;;;3.70;;
70169;SDS011;57543;45.442;9.212;2022-11-20T15:31:34;6.68;;;3.55;;
70169;SDS011;57543;45.442;9.212;2022-11-20T15:34:38;7.20;;;3.47;;
70169;SDS011;57543;45.442;9.212;2022-11-20T15:37:42;8.18;;;3.47;;
70169;SDS011;57543;45.442;9.212;2022-11-20T15:40:46;8.00;;;3.60;;
70169;SDS011;57543;45.442;9.212;2022-11-20T15:43:50;7.63;;;3.90;;
70169;SDS011;57543;45.442;9.212;2022-11-20T15:46:53;7.00;;;3.42;;
70169;SDS011;57543;45.442;9.212;2022-11-20T15:49:57;7.07;;;3.65;;
70169;SDS011;57543;45.442;9.212;2022-11-20T15:53:01;8.15;;;3.75;;
70169;SDS011;57543;45.442;9.212;2022-11-20T15:56:05;7.70;;;4.10;;
70169;SDS011;57543;45.442;9.212;2022-11-20T15:59:09;10.33;;;6.47;;
70169;SDS011;57543;45.442;9.212;2022-11-20T16:02:13;9.52;;;5.50;;
70169;SDS011;57543;45.442;9.212;2022-11-20T16:05:18;8.63;;;4.82;;
70169;SDS011;57543;45.442;9.212;2022-11-20T16:08:21;7.53;;;3.97;;
70169;SDS011;57543;45.442;9.212;2022-11-20T16:11:25;7.97;;;4.40;;
70169;SDS011;57543;45.442;9.212;2022-11-20T16:14:29;7.97;;;4.63;;
70169;SDS011;57543;45.442;9.212;2022-11-20T16:17:52;9.02;;;5.00;;
70169;SDS011;57543;45.442;9.212;2022-11-20T16:20:55;8.65;;;5.10;;
70169;SDS011;57543;45.442;9.212;2022-11-20T16:24:03;7.97;;;4.75;;
70169;SDS011;57543;45.442;9.212;2022-11-20T16:27:08;9.25;;;4.72;;
70169;SDS011;57543;45.442;9.212;2022-11-20T16:30:13;8.50;;;4.70;;
70169;SDS011;57543;45.442;9.212;2022-11-20T16:33:17;10.00;;;5.53;;
70169;SDS011;57543;45.442;9.212;2022-11-20T16:36:21;8.23;;;4.80;;
70169;SDS011;57543;45.442;9.212;2022-11-20T16:39:26;10.25;;;5.70;;
70169;SDS011;57543;45.442;9.212;2022-11-20T16:42:32;9.23;;;5.32;;
70169;SDS011;57543;45.442;9.212;2022-11-20T16:45:39;11.13;;;5.90;;
70169;SDS011;57543;45.442;9.212;2022-11-20T16:48:44;10.57;;;6.25;;
70169;SDS011;57543;45.442;9.212;2022-11-20T16:51:48;12.60;;;6.68;;
70169;SDS011;57543;45.442;9.212;2022-11-20T16:54:52;10.95;;;6.00;;
70169;SDS011;57543;45.442;9.212;2022-11-20T16:57:56;12.27;;;6.60;;
70169;SDS011;57543;45.442;9.212;2022-11-20T17:01:04;11.23;;;6.27;;
70169;SDS011;57543;45.442;9.212;2022-11-20T17:04:09;12.45;;;7.05;;
70169;SDS011;57543;45.442;9.212;2022-11-20T17:07:13;12.52;;;6.95;;
70169;SDS011;57543;45.442;9.212;2022-11-20T17:10:17;14.18;;;7.10;;
70169;SDS011;57543;45.442;9.212;2022-11-20T17:13:21;12.25;;;6.95;;
70169;SDS011;57543;45.442;9.212;2022-11-20T17:16:25;13.30;;;7.70;;
70169;SDS011;57543;45.442;9.212;2022-11-20T17:19:29;13.45;;;7.82;;
70169;SDS011;57543;45.442;9.212;2022-11-20T17:22:32;12.05;;;7.93;;
70169;SDS011;57543;45.442;9.212;2022-11-20T17:25:36;14.80;;;8.15;;
70169;SDS011;57543;45.442;9.212;2022-11-20T17:28:40;14.10;;;8.40;;
70169;SDS011;57543;45.442;9.212;2022-11-20T17:31:44;14.67;;;7.93;;
70169;SDS011;57543;45.442;9.212;2022-11-20T17:34:48;12.40;;;7.40;;
70169;SDS011;57543;45.442;9.212;2022-11-20T17:37:52;14.93;;;8.23;;
70169;SDS011;57543;45.442;9.212;2022-11-20T17:41:02;13.70;;;8.02;;
70169;SDS011;57543;45.442;9.212;2022-11-20T17:44:08;13.23;;;7.72;;
70169;SDS011;57543;45.442;9.212;2022-11-20T17:47:13;14.20;;;7.87;;
70169;SDS011;57543;45.442;9.212;2022-11-20T17:50:16;15.65;;;9.10;;
70169;SDS011;57543;45.442;9.212;2022-11-20T17:53:20;14.85;;;8.88;;
70169;SDS011;57543;45.442;9.212;2022-11-20T17:56:23;15.05;;;8.70;;
70169;SDS011;57543;45.442;9.212;2022-11-20T17:59:46;17.73;;;9.27;;
70169;SDS011;57543;45.442;9.212;2022-11-20T18:02:50;15.70;;;8.63;;
70169;SDS011;57543;45.442;9.212;2022-11-20T18:05:53;15.05;;;8.85;;
70169;SDS011;57543;45.442;9.212;2022-11-20T18:08:58;14.63;;;8.55;;
70169;SDS011;57543;45.442;9.212;2022-11-20T18:12:02;14.88;;;8.88;;
70169;SDS011;57543;45.442;9.212;2022-11-20T18:15:06;16.48;;;8.90;;
70169;SDS011;57543;45.442;9.212;2022-11-20T18:18:10;16.00;;;8.47;;
70169;SDS011;57543;45.442;9.212;2022-11-20T18:21:13;16.25;;;9.05;;
70169;SDS011;57543;45.442;9.212;2022-11-20T18:24:17;16.58;;;9.40;;
70169;SDS011;57543;45.442;9.212;2022-11-20T18:27:21;14.82;;;8.68;;
70169;SDS011;57543;45.442;9.212;2022-11-20T18:30:26;17.30;;;8.65;;
70169;SDS011;57543;45.442;9.212;2022-11-20T18:33:29;14.10;;;8.77;;
70169;SDS011;57543;45.442;9.212;2022-11-20T18:36:33;15.73;;;8.25;;
70169;SDS011;57543;45.442;9.212;2022-11-20T18:39:36;17.85;;;9.77;;
70169;SDS011;57543;45.442;9.212;2022-11-20T18:42:40;18.55;;;9.55;;
70169;SDS011;57543;45.442;9.212;2022-11-20T18:46:02;16.13;;;9.00;;
70169;SDS011;57543;45.442;9.212;2022-11-20T18:49:07;15.73;;;9.07;;
70169;SDS011;57543;45.442;9.212;2022-11-20T18:52:11;16.25;;;9.55;;
70169;SDS011;57543;45.442;9.212;2022-11-20T18:55:15;16.05;;;9.20;;
70169;SDS011;57543;45.442;9.212;2022-11-20T18:58:19;17.55;;;9.90;;
70169;SDS011;57543;45.442;9.212;2022-11-20T19:01:23;17.08;;;9.20;;
70169;SDS011;57543;45.442;9.212;2022-11-20T19:04:27;15.10;;;8.80;;
70169;SDS011;57543;45.442;9.212;2022-11-20T19:07:32;16.90;;;9.35;;
70169;SDS011;57543;45.442;9.212;2022-11-20T19:10:35;16.38;;;9.15;;
70169;SDS011;57543;45.442;9.212;2022-11-20T19:13:40;17.77;;;8.82;;
70169;SDS011;57543;45.442;9.212;2022-11-20T19:16:44;13.25;;;8.40;;
70169;SDS011;57543;45.442;9.212;2022-11-20T19:19:48;16.47;;;8.90;;
70169;SDS011;57543;45.442;9.212;2022-11-20T19:22:51;17.63;;;9.13;;
70169;SDS011;57543;45.442;9.212;2022-11-20T19:25:59;16.98;;;10.15;;
70169;SDS011;57543;45.442;9.212;2022-11-20T19:29:06;17.70;;;9.65;;
70169;SDS011;57543;45.442;9.212;2022-11-20T19:32:09;19.23;;;10.40;;
70169;SDS011;57543;45.442;9.212;2022-11-20T19:35:14;22.47;;;11.73;;
70169;SDS011;57543;45.442;9.212;2022-11-20T19:38:18;20.85;;;11.80;;
70169;SDS011;57543;45.442;9.212;2022-11-20T19:41:23;20.05;;;11.57;;